createdAt,value
2018-09-23T00:00:27.065Z,96.50
2018-09-23T00:02:56.091Z,96.00
2018-09-23T00:05:24.200Z,95.60
2018-09-23T00:07:52.395Z,95.80
2018-09-23T00:10:20.547Z,95.70
2018-09-23T00:12:48.862Z,95.90
2018-09-23T00:15:16.945Z,95.50
2018-09-23T00:17:45.115Z,95.40
2018-09-23T00:20:13.276Z,95.40
2018-09-23T00:22:41.639Z,95.50
2018-09-23T00:25:09.959Z,95.80
2018-09-23T00:27:38.088Z,95.70
2018-09-23T00:30:06.724Z,95.60
2018-09-23T00:32:34.798Z,95.40
2018-09-23T00:35:02.918Z,95.30
2018-09-23T00:37:31.333Z,95.80
2018-09-23T00:39:59.419Z,96.20
2018-09-23T00:42:27.525Z,96.00
2018-09-23T00:44:55.611Z,95.70
2018-09-23T00:47:23.986Z,95.80
2018-09-23T00:49:52.725Z,95.50
2018-09-23T00:52:20.819Z,95.30
2018-09-23T00:54:48.906Z,95.10
2018-09-23T00:57:16.982Z,95.70
2018-09-23T00:59:45.067Z,95.90
2018-09-23T01:02:13.201Z,96.10
2018-09-23T01:04:41.252Z,95.80
2018-09-23T01:07:09.331Z,95.70
2018-09-23T01:09:37.705Z,95.60
2018-09-23T01:12:05.774Z,95.50
2018-09-23T01:14:33.847Z,95.40
2018-09-23T01:17:01.922Z,95.30
2018-09-23T01:19:30.004Z,94.70
2018-09-23T01:21:58.094Z,94.70
2018-09-23T01:24:26.186Z,95.10
2018-09-23T01:26:54.255Z,95.20
2018-09-23T01:29:22.427Z,95.00
2018-09-23T01:31:50.496Z,94.90
2018-09-23T01:34:18.563Z,95.10
2018-09-23T01:36:47.237Z,95.20
2018-09-23T01:39:15.290Z,95.30
2018-09-23T01:41:43.384Z,95.50
2018-09-23T01:44:11.497Z,95.70
2018-09-23T01:46:39.572Z,95.70
2018-09-23T01:49:07.660Z,95.70
2018-09-23T01:51:35.754Z,95.60
2018-09-23T01:54:04.174Z,95.60
2018-09-23T01:56:32.734Z,95.60
2018-09-23T01:59:00.823Z,95.60
2018-09-23T02:01:28.945Z,95.10
2018-09-23T02:03:57.031Z,95.30
2018-09-23T02:06:25.331Z,95.50
2018-09-23T02:08:53.402Z,95.40
2018-09-23T02:11:21.486Z,95.50
2018-09-23T02:13:49.580Z,95.30
2018-09-23T02:16:18.179Z,95.60
2018-09-23T02:18:46.303Z,95.20
2018-09-23T02:21:14.725Z,95.20
2018-09-23T02:23:42.903Z,95.20
2018-09-23T02:26:11.298Z,95.40
2018-09-23T02:28:39.418Z,95.50
2018-09-23T02:31:07.504Z,95.30
2018-09-23T02:33:35.601Z,95.50
2018-09-23T02:36:03.656Z,95.60
2018-09-23T02:38:31.725Z,95.40
2018-09-23T02:40:59.805Z,95.30
2018-09-23T02:43:27.882Z,95.40
2018-09-23T02:45:55.954Z,95.30
2018-09-23T02:48:24.433Z,95.30
2018-09-23T02:50:53.267Z,95.30
2018-09-23T02:53:21.350Z,95.30
2018-09-23T02:55:49.564Z,95.50
2018-09-23T02:58:17.673Z,95.70
2018-09-23T03:00:45.780Z,95.50
2018-09-23T03:03:13.863Z,95.60
2018-09-23T03:05:42.077Z,95.70
2018-09-23T03:08:10.154Z,95.70
2018-09-23T03:10:38.288Z,95.60
2018-09-23T03:13:06.364Z,95.70
2018-09-23T03:15:34.618Z,95.70
2018-09-23T03:18:02.708Z,95.80
2018-09-23T03:20:30.809Z,95.70
2018-09-23T03:22:58.871Z,95.70
2018-09-23T03:25:27.055Z,95.80
2018-09-23T03:27:55.138Z,95.80
2018-09-23T03:30:23.234Z,96.00
2018-09-23T03:32:51.599Z,96.00
2018-09-23T03:35:19.698Z,96.00
2018-09-23T03:37:47.786Z,95.90
2018-09-23T03:40:15.871Z,95.90
2018-09-23T03:42:44.012Z,96.00
2018-09-23T03:45:12.093Z,96.00
2018-09-23T03:47:40.195Z,95.90
2018-09-23T03:50:09.146Z,95.90
2018-09-23T03:52:37.234Z,95.90
2018-09-23T03:55:05.346Z,96.10
2018-09-23T03:57:33.448Z,96.00
2018-09-23T04:00:01.551Z,96.50
2018-09-23T04:02:29.664Z,96.00
2018-09-23T04:04:57.763Z,96.00
2018-09-23T04:07:25.891Z,96.10
2018-09-23T04:09:54.008Z,96.10
2018-09-23T04:12:22.080Z,96.30
2018-09-23T04:14:50.251Z,96.20
2018-09-23T04:17:18.716Z,96.40
2018-09-23T04:19:46.836Z,96.30
2018-09-23T04:22:14.970Z,96.30
2018-09-23T04:24:43.047Z,96.40
2018-09-23T04:27:11.163Z,96.50
2018-09-23T04:29:39.278Z,96.50
2018-09-23T04:32:07.389Z,96.30
2018-09-23T04:34:35.502Z,96.50
2018-09-23T04:37:03.856Z,96.60
2018-09-23T04:39:31.959Z,96.60
2018-09-23T04:42:00.085Z,96.70
2018-09-23T04:44:28.535Z,96.60
2018-09-23T04:46:56.686Z,96.70
2018-09-23T04:49:25.455Z,96.60
2018-09-23T04:51:53.598Z,96.80
2018-09-23T04:54:21.728Z,96.80
2018-09-23T04:56:50.233Z,96.60
2018-09-23T04:59:18.381Z,96.70
2018-09-23T05:01:46.514Z,96.80
2018-09-23T05:04:14.910Z,96.70
2018-09-23T05:06:43.018Z,96.70
2018-09-23T05:09:11.609Z,96.50
2018-09-23T05:11:40.119Z,96.60
2018-09-23T05:14:08.232Z,96.70
2018-09-23T05:16:36.326Z,96.70
2018-09-23T05:19:04.440Z,96.50
2018-09-23T05:21:32.564Z,96.60
2018-09-23T05:24:00.689Z,96.70
2018-09-23T05:26:28.796Z,96.70
2018-09-23T05:28:56.942Z,96.70
2018-09-23T05:31:25.030Z,96.80
2018-09-23T05:33:53.185Z,96.80
2018-09-23T05:36:21.292Z,96.90
2018-09-23T05:38:49.391Z,96.80
2018-09-23T05:41:17.524Z,96.90
2018-09-23T05:43:45.954Z,96.90
2018-09-23T05:46:14.059Z,96.90
2018-09-23T05:48:42.502Z,97.20
2018-09-23T05:51:10.598Z,96.80
2018-09-23T05:53:38.698Z,96.90
2018-09-23T05:56:06.792Z,97.00
2018-09-23T05:58:35.480Z,96.80
2018-09-23T06:01:03.563Z,96.90
2018-09-23T06:03:31.675Z,96.80
2018-09-23T06:06:00.190Z,96.70
2018-09-23T06:08:28.295Z,96.60
2018-09-23T06:10:56.415Z,97.00
2018-09-23T06:13:24.522Z,96.90
2018-09-23T06:15:52.971Z,97.20
2018-09-23T06:18:21.135Z,97.00
2018-09-23T06:20:49.189Z,96.90
2018-09-23T06:23:17.277Z,96.90
2018-09-23T06:25:45.378Z,97.00
2018-09-23T06:28:13.478Z,97.00
2018-09-23T06:30:41.610Z,97.00
2018-09-23T06:33:09.707Z,97.00
2018-09-23T06:35:37.927Z,96.90
2018-09-23T06:38:06.052Z,96.90
2018-09-23T06:40:34.169Z,96.90
2018-09-23T06:43:02.567Z,97.00
2018-09-23T06:45:30.934Z,97.00
2018-09-23T06:47:59.078Z,97.00
2018-09-23T06:50:27.215Z,96.90
2018-09-23T06:52:55.314Z,97.10
2018-09-23T06:55:23.445Z,96.90
2018-09-23T06:58:02.558Z,96.90
2018-09-23T07:00:30.671Z,96.70
2018-09-23T07:02:58.754Z,97.00
2018-09-23T07:05:26.839Z,97.10
2018-09-23T07:07:54.922Z,96.90
2018-09-23T07:10:23.023Z,96.90
2018-09-23T07:12:51.087Z,96.70
2018-09-23T07:15:19.160Z,96.80
2018-09-23T07:17:47.311Z,96.70
2018-09-23T07:20:15.408Z,96.70
2018-09-23T07:22:43.796Z,96.70
2018-09-23T07:25:11.862Z,96.60
2018-09-23T07:27:39.941Z,96.80
2018-09-23T07:30:08.055Z,96.90
2018-09-23T07:32:36.075Z,96.70
2018-09-23T07:35:04.602Z,96.60
2018-09-23T07:37:32.989Z,96.90
2018-09-23T07:40:01.177Z,96.80
2018-09-23T07:42:29.141Z,96.50
2018-09-23T07:44:57.228Z,96.60
2018-09-23T07:47:25.307Z,96.70
2018-09-23T07:49:53.656Z,96.80
2018-09-23T07:52:21.702Z,96.90
2018-09-23T07:54:49.782Z,96.80
2018-09-23T07:57:17.878Z,96.70
2018-09-23T07:59:45.954Z,96.40
2018-09-23T08:02:14.066Z,96.60
2018-09-23T08:04:42.363Z,96.40
2018-09-23T08:07:10.499Z,96.50
2018-09-23T08:09:38.631Z,96.60
2018-09-23T08:12:06.739Z,96.50
2018-09-23T08:14:35.233Z,96.50
2018-09-23T08:17:03.000Z,96.30
2018-09-23T08:19:31.151Z,96.10
2018-09-23T08:21:59.170Z,96.10
2018-09-23T08:24:27.275Z,96.00
2018-09-23T08:26:55.387Z,96.10
2018-09-23T08:29:23.730Z,96.10
2018-09-23T08:31:51.832Z,96.10
2018-09-23T08:34:19.935Z,96.10
2018-09-23T08:36:48.111Z,95.90
2018-09-23T08:39:16.298Z,95.80
2018-09-23T08:41:44.702Z,96.00
2018-09-23T08:44:12.818Z,95.70
2018-09-23T08:46:41.042Z,95.50
2018-09-23T08:49:09.182Z,95.50
2018-09-23T08:51:37.302Z,95.70
2018-09-23T08:54:05.449Z,95.90
2018-09-23T08:56:33.536Z,96.00
2018-09-23T08:59:01.642Z,95.80
2018-09-23T09:01:30.155Z,95.80
2018-09-23T09:03:58.250Z,96.10
2018-09-23T09:06:26.379Z,95.80
2018-09-23T09:08:54.504Z,95.90
2018-09-23T09:20:00.811Z,96.80
2018-09-23T09:22:28.930Z,96.60
2018-09-23T09:24:57.319Z,96.50
2018-09-23T09:27:25.505Z,96.50
2018-09-23T09:29:53.594Z,96.20
2018-09-23T09:32:21.764Z,96.00
2018-09-23T09:40:35.986Z,96.00
2018-09-23T09:43:04.114Z,96.10
2018-09-23T09:45:32.223Z,96.20
2018-09-23T09:48:00.347Z,96.10
2018-09-23T09:53:22.163Z,96.50
2018-09-23T09:55:50.434Z,96.30
2018-09-23T09:58:19.471Z,96.30
2018-09-23T10:00:47.611Z,95.70
2018-09-23T10:03:15.756Z,95.70
2018-09-23T10:05:44.051Z,95.90
2018-09-23T10:08:12.170Z,95.80
2018-09-23T10:10:40.338Z,95.90
2018-09-23T10:13:08.483Z,95.90
2018-09-23T10:15:36.635Z,96.20
2018-09-23T10:18:04.784Z,96.20
2018-09-23T10:20:33.245Z,96.10
2018-09-23T10:23:01.550Z,96.30
2018-09-23T10:25:29.639Z,96.00
2018-09-23T10:27:57.767Z,96.10
2018-09-23T10:30:25.932Z,95.80
2018-09-23T10:32:54.063Z,95.90
2018-09-23T10:35:22.264Z,96.00
2018-09-23T10:37:50.389Z,96.00
2018-09-23T10:40:18.508Z,96.10
2018-09-23T10:42:46.664Z,96.20
2018-09-23T10:45:14.831Z,96.50
2018-09-23T10:47:43.197Z,96.70
2018-09-23T10:50:11.332Z,96.50
2018-09-23T10:52:39.533Z,96.60
2018-09-23T10:55:07.884Z,96.50
2018-09-23T10:57:36.051Z,96.70
2018-09-23T11:00:04.223Z,96.60
2018-09-23T11:02:32.704Z,96.50
2018-09-23T11:05:00.847Z,96.70
2018-09-23T11:07:29.034Z,96.70
2018-09-23T11:09:57.229Z,97.00
2018-09-23T11:12:25.277Z,97.10
2018-09-23T11:14:53.410Z,97.00
2018-09-23T11:17:21.548Z,97.00
2018-09-23T11:19:50.143Z,96.90
2018-09-23T11:22:18.311Z,96.90
2018-09-23T11:24:46.531Z,97.10
2018-09-23T11:27:14.648Z,97.00
2018-09-23T11:29:42.904Z,97.30
2018-09-23T11:32:11.039Z,97.30
2018-09-23T11:34:39.173Z,97.40
2018-09-23T11:37:07.303Z,97.50
2018-09-23T11:39:35.431Z,98.00
2018-09-23T11:42:03.587Z,97.60
2018-09-23T11:44:31.740Z,97.50
2018-09-23T11:46:59.873Z,97.70
2018-09-23T11:49:28.065Z,97.60
2018-09-23T11:51:56.199Z,97.40
2018-09-23T11:57:29.063Z,97.30
2018-09-23T11:59:57.196Z,97.60
2018-09-23T12:02:25.357Z,97.30
2018-09-23T12:04:53.503Z,97.10
2018-09-23T12:07:21.675Z,97.00
2018-09-23T12:09:49.791Z,96.90
2018-09-23T12:12:17.906Z,97.20
2018-09-23T12:14:46.067Z,97.20
2018-09-23T12:17:14.136Z,97.10
2018-09-23T12:19:42.345Z,97.30
2018-09-23T12:22:10.534Z,97.30
2018-09-23T12:24:38.625Z,97.30
2018-09-23T12:27:06.746Z,97.40
2018-09-23T12:29:34.930Z,97.20
2018-09-23T12:32:03.034Z,97.50
2018-09-23T12:34:31.241Z,97.20
2018-09-23T12:36:59.701Z,97.00
2018-09-23T12:39:31.966Z,97.20
2018-09-23T12:42:00.960Z,97.20
2018-09-23T12:44:29.068Z,97.30
2018-09-23T12:46:57.568Z,97.30
2018-09-23T12:49:25.767Z,97.40
2018-09-23T12:51:53.955Z,97.30
2018-09-23T12:54:22.324Z,97.30
2018-09-23T12:56:50.453Z,97.00
2018-09-23T12:59:18.563Z,97.30
2018-09-23T13:01:46.666Z,97.50
2018-09-23T13:04:14.783Z,97.70
2018-09-23T13:06:43.058Z,97.60
2018-09-23T13:09:11.199Z,97.60
2018-09-23T13:11:39.311Z,97.80
2018-09-23T13:14:08.015Z,97.40
2018-09-23T13:16:36.116Z,97.20
2018-09-23T13:19:04.286Z,97.40
2018-09-23T13:21:32.407Z,97.60
2018-09-23T13:24:00.569Z,97.50
2018-09-23T13:26:28.680Z,97.20
2018-09-23T13:28:57.125Z,97.20
2018-09-23T13:31:25.249Z,96.90
2018-09-23T13:33:53.375Z,97.10
2018-09-23T13:36:21.507Z,97.00
2018-09-23T13:38:49.651Z,96.90
2018-09-23T13:41:17.763Z,96.80
2018-09-23T13:43:45.907Z,96.60
2018-09-23T13:46:14.030Z,96.50
2018-09-23T13:48:42.127Z,96.60
2018-09-23T13:51:10.328Z,97.10
2018-09-23T13:53:38.728Z,97.00
2018-09-23T13:56:13.517Z,97.10
2018-09-23T13:58:41.644Z,97.00
2018-09-23T14:01:09.756Z,96.90
2018-09-23T14:03:37.927Z,96.60
2018-09-23T14:06:06.046Z,96.60
2018-09-23T14:08:34.179Z,96.40
2018-09-23T14:11:02.259Z,96.70
2018-09-23T14:13:30.422Z,96.10
2018-09-23T14:15:58.542Z,96.30
2018-09-23T14:18:26.675Z,96.20
2018-09-23T14:20:54.850Z,96.40
2018-09-23T14:23:22.977Z,96.40
2018-09-23T14:25:51.089Z,96.60
2018-09-23T14:28:19.192Z,96.70
2018-09-23T14:30:47.315Z,96.60
2018-09-23T14:33:15.424Z,96.80
2018-09-23T14:35:43.569Z,96.80
2018-09-23T14:38:11.691Z,96.90
2018-09-23T14:40:39.802Z,96.70
2018-09-23T14:43:07.907Z,96.80
2018-09-23T14:45:36.119Z,96.90
2018-09-23T14:48:04.238Z,97.00
2018-09-23T14:50:32.351Z,97.30
2018-09-23T14:53:00.463Z,96.80
2018-09-23T14:55:28.775Z,96.90
2018-09-23T14:57:56.967Z,96.90
2018-09-23T15:00:25.140Z,96.60
2018-09-23T15:02:53.239Z,96.50
2018-09-23T15:05:21.369Z,96.50
2018-09-23T15:07:49.501Z,96.40
2018-09-23T15:10:17.617Z,96.70
2018-09-23T15:12:45.714Z,97.10
2018-09-23T15:15:13.847Z,96.90
2018-09-23T15:17:41.959Z,96.70
2018-09-23T15:20:10.093Z,96.50
2018-09-23T15:22:38.204Z,96.60
2018-09-23T15:25:06.327Z,96.50
2018-09-23T15:27:34.489Z,96.40
2018-09-23T15:30:02.608Z,96.90
2018-09-23T15:32:30.707Z,96.10
2018-09-23T15:34:59.231Z,96.10
2018-09-23T15:37:27.334Z,95.80
2018-09-23T15:39:55.508Z,95.80
2018-09-23T15:42:23.710Z,95.80
2018-09-23T15:44:51.738Z,95.60
2018-09-23T15:47:19.839Z,95.90
2018-09-23T15:49:47.929Z,95.90
2018-09-23T15:52:16.224Z,95.90
2018-09-23T15:54:44.227Z,95.60
2018-09-23T15:57:12.330Z,95.70
2018-09-23T15:59:40.403Z,95.80
2018-09-23T16:02:08.528Z,95.70
2018-09-23T16:04:36.697Z,95.70
2018-09-23T16:07:04.779Z,95.60
2018-09-23T16:09:33.181Z,95.50
2018-09-23T16:12:01.279Z,95.80
2018-09-23T16:14:29.416Z,95.70
2018-09-23T16:16:57.521Z,95.60
2018-09-23T16:19:25.678Z,95.80
2018-09-23T16:21:53.819Z,96.00
2018-09-23T16:24:21.991Z,95.90
2018-09-23T16:26:50.079Z,95.80
2018-09-23T16:29:18.292Z,95.60
2018-09-23T16:31:46.376Z,95.40
2018-09-23T16:34:14.479Z,95.50
2018-09-23T16:36:42.587Z,95.50
2018-09-23T16:39:11.418Z,95.50
2018-09-23T16:41:39.563Z,95.30
2018-09-23T16:44:08.044Z,95.20
2018-09-23T16:46:36.239Z,95.30
2018-09-23T16:49:04.347Z,95.50
2018-09-23T16:51:32.463Z,95.40
2018-09-23T16:54:00.555Z,95.40
2018-09-23T16:56:28.684Z,95.00
2018-09-23T16:59:08.495Z,95.30
2018-09-23T17:01:36.637Z,95.30
2018-09-23T17:04:04.771Z,95.60
2018-09-23T17:06:32.902Z,95.60
2018-09-23T17:09:01.059Z,95.70
2018-09-23T17:11:29.156Z,95.60
2018-09-23T17:13:57.275Z,95.90
2018-09-23T17:16:25.407Z,96.00
2018-09-23T17:18:53.535Z,95.90
2018-09-23T17:21:21.948Z,96.00
2018-09-23T17:23:50.140Z,96.20
2018-09-23T17:26:18.399Z,96.10
2018-09-23T17:28:46.512Z,96.10
2018-09-23T17:31:14.620Z,96.10
2018-09-23T17:33:42.741Z,96.10
2018-09-23T17:36:10.867Z,96.10
2018-09-23T17:38:38.947Z,96.20
2018-09-23T17:41:07.312Z,96.70
2018-09-23T17:43:36.329Z,96.30
2018-09-23T17:46:04.440Z,96.40
2018-09-23T17:48:32.575Z,96.40
2018-09-23T17:51:00.676Z,96.50
2018-09-23T17:53:28.812Z,96.80
2018-09-23T17:55:56.909Z,96.50
2018-09-23T17:58:25.035Z,97.20
2018-09-23T18:00:53.135Z,97.10
2018-09-23T18:03:21.252Z,96.90
2018-09-23T18:05:49.429Z,97.00
2018-09-23T18:08:17.544Z,96.70
2018-09-23T18:10:45.641Z,97.30
2018-09-23T18:13:13.775Z,97.20
2018-09-23T18:15:42.177Z,96.90
2018-09-23T18:18:10.770Z,97.60
2018-09-23T18:20:38.863Z,97.90
2018-09-23T18:23:06.987Z,97.80
2018-09-23T18:25:35.215Z,97.60
2018-09-23T18:28:03.339Z,97.60
2018-09-23T18:30:31.440Z,97.60
2018-09-23T18:32:59.580Z,97.40
2018-09-23T18:35:27.687Z,97.30
2018-09-23T18:37:56.051Z,97.30
2018-09-23T18:40:24.162Z,97.30
2018-09-23T18:42:52.290Z,97.80
2018-09-23T18:45:20.391Z,97.80
2018-09-23T18:47:48.503Z,97.80
2018-09-23T18:50:16.675Z,97.80
2018-09-23T18:52:44.773Z,97.80
2018-09-23T18:55:18.273Z,98.00
2018-09-23T18:57:46.387Z,97.90
2018-09-23T19:00:14.816Z,98.20
2018-09-23T19:02:42.952Z,98.10
2018-09-23T19:05:11.152Z,97.90
2018-09-23T19:07:39.476Z,98.20
2018-09-23T19:10:07.645Z,98.10
2018-09-23T19:12:35.764Z,98.20
2018-09-23T19:15:03.890Z,97.60
2018-09-23T19:17:32.027Z,98.20
2018-09-23T19:20:05.759Z,98.70
2018-09-23T19:22:39.413Z,98.50
2018-09-23T19:25:07.523Z,98.40
2018-09-23T19:27:35.673Z,98.50
2018-09-23T19:30:03.828Z,98.60
2018-09-23T19:32:31.993Z,98.20
2018-09-23T19:35:00.047Z,98.40
2018-09-23T19:37:28.147Z,98.10
2018-09-23T19:39:56.264Z,97.80
2018-09-23T19:42:24.575Z,98.00
2018-09-23T19:44:52.659Z,98.30
2018-09-23T19:47:20.779Z,98.20
2018-09-23T19:49:48.991Z,98.30
2018-09-23T19:52:17.119Z,98.40
2018-09-23T19:54:45.229Z,98.60
2018-09-23T19:57:13.352Z,98.60
2018-09-23T19:59:41.468Z,98.20
2018-09-23T20:02:09.582Z,99.20
2018-09-23T20:04:37.943Z,98.60
2018-09-23T20:07:06.392Z,98.40
2018-09-23T20:09:34.535Z,98.20
2018-09-23T20:12:02.752Z,98.70
2018-09-23T20:14:30.864Z,99.00
2018-09-23T20:16:58.990Z,98.90
2018-09-23T20:19:27.091Z,98.00
2018-09-23T20:21:55.203Z,98.90
2018-09-23T20:24:23.347Z,98.90
2018-09-23T20:26:51.460Z,98.30
2018-09-23T20:29:19.573Z,98.20
2018-09-23T20:31:47.681Z,98.00
2018-09-23T20:34:15.846Z,98.00
2018-09-23T20:36:43.914Z,98.00
2018-09-23T20:39:12.053Z,98.10
2018-09-23T20:41:40.160Z,97.90
2018-09-23T20:44:08.382Z,98.30
2018-09-23T20:46:36.529Z,98.30
2018-09-23T20:49:04.858Z,98.40
2018-09-23T20:51:33.080Z,98.10
2018-09-23T20:54:01.204Z,98.50
2018-09-23T20:56:29.307Z,98.60
2018-09-23T20:58:57.429Z,98.30
2018-09-23T21:01:25.551Z,98.60
2018-09-23T21:03:54.291Z,98.10
2018-09-23T21:06:22.413Z,98.80
2018-09-23T21:08:50.800Z,98.90
2018-09-23T21:11:19.280Z,98.70
2018-09-23T21:13:47.475Z,98.20
2018-09-23T21:16:15.601Z,98.70
2018-09-23T21:18:43.700Z,98.50
2018-09-23T21:21:11.810Z,98.70
2018-09-23T21:23:39.940Z,98.80
2018-09-23T21:26:08.119Z,99.00
2018-09-23T21:28:36.270Z,98.90
2018-09-23T21:31:04.424Z,98.50
2018-09-23T21:33:32.567Z,98.60
2018-09-23T21:36:00.724Z,99.00
2018-09-23T21:38:28.947Z,98.20
2018-09-23T21:40:57.067Z,98.50
2018-09-23T21:43:25.285Z,98.70
2018-09-23T21:45:53.441Z,98.70
2018-09-23T21:48:21.563Z,98.40
2018-09-23T21:50:49.769Z,98.60
2018-09-23T21:53:17.871Z,99.30
2018-09-23T21:55:45.990Z,98.60
2018-09-23T21:58:14.092Z,98.50
2018-09-23T22:00:43.962Z,98.50
2018-09-23T22:03:13.398Z,98.30
2018-09-23T22:05:41.456Z,98.70
2018-09-23T22:08:10.250Z,98.90
2018-09-23T22:10:39.372Z,99.00
2018-09-23T22:13:07.590Z,98.70
2018-09-23T22:15:35.723Z,98.80
2018-09-23T22:18:03.867Z,98.40
2018-09-23T22:20:32.007Z,98.70
2018-09-23T22:23:00.152Z,98.70
2018-09-23T22:25:28.270Z,99.30
2018-09-23T22:27:56.473Z,99.60
2018-09-23T22:30:24.591Z,99.30
2018-09-23T22:32:52.725Z,98.90
2018-09-23T22:35:20.844Z,99.00
2018-09-23T22:37:49.252Z,98.80
2018-09-23T22:40:17.371Z,98.40
2018-09-23T22:42:45.459Z,98.50
2018-09-23T22:45:13.575Z,98.60
2018-09-23T22:47:41.684Z,98.50
2018-09-23T22:50:09.832Z,98.80
2018-09-23T22:52:37.952Z,98.90
2018-09-23T22:55:06.073Z,99.30
2018-09-23T22:57:34.243Z,99.10
2018-09-23T23:00:02.361Z,98.70
2018-09-23T23:02:30.493Z,98.90
2018-09-23T23:04:58.599Z,98.60
2018-09-23T23:07:26.712Z,99.20
2018-09-23T23:09:54.820Z,99.50
2018-09-23T23:12:22.927Z,99.10
2018-09-23T23:14:51.031Z,99.10
2018-09-23T23:17:19.147Z,99.10
2018-09-23T23:19:47.267Z,99.00
2018-09-23T23:22:15.418Z,98.60
2018-09-23T23:24:43.916Z,98.90
2018-09-23T23:27:12.035Z,99.10
2018-09-23T23:29:40.203Z,98.90
2018-09-23T23:32:08.512Z,99.00
2018-09-23T23:34:36.628Z,98.90
2018-09-23T23:37:04.792Z,98.80
2018-09-23T23:39:32.919Z,98.70
2018-09-23T23:42:01.032Z,98.90
2018-09-23T23:44:29.138Z,98.90
2018-09-23T23:46:57.270Z,98.60
2018-09-23T23:49:25.375Z,98.90
2018-09-23T23:51:53.518Z,99.10
2018-09-23T23:54:21.639Z,98.90
2018-09-23T23:56:49.757Z,99.10
2018-09-23T23:59:17.888Z,98.90
